METAR Data
IDs: Format: Raw Decoded Include TAF

Data at: 0309 UTC 25 Feb 2021

KOWI 250255Z AUTO 01006KT 10SM OVC110 01/M02 A3031 RMK AO2